createdAt,value
2017-02-20T00:01:03.314Z,0
2017-02-20T00:02:14.313Z,0
2017-02-20T00:03:25.078Z,0
2017-02-20T00:04:35.823Z,0
2017-02-20T00:05:46.195Z,0
2017-02-20T00:06:56.545Z,0
2017-02-20T00:08:06.757Z,0
2017-02-20T00:09:17.135Z,0
2017-02-20T00:10:27.874Z,0
2017-02-20T00:11:37.843Z,0
2017-02-20T00:12:48.198Z,0
2017-02-20T00:13:58.824Z,0
2017-02-20T00:15:08.792Z,0
2017-02-20T00:16:19.152Z,0
2017-02-20T00:17:29.112Z,0
2017-02-20T00:18:39.864Z,0
2017-02-20T00:19:50.495Z,0
2017-02-20T00:21:01.266Z,0
2017-02-20T00:22:11.228Z,0
2017-02-20T00:23:21.595Z,0
2017-02-20T00:24:31.573Z,0
2017-02-20T00:25:42.574Z,0
2017-02-20T00:26:53.326Z,0
2017-02-20T00:28:03.669Z,0
2017-02-20T00:29:13.265Z,0
2017-02-20T00:30:24.018Z,0
2017-02-20T00:31:34.242Z,0
2017-02-20T00:32:44.594Z,0
2017-02-20T00:33:54.940Z,0
2017-02-20T00:35:05.291Z,0
2017-02-20T00:36:16.037Z,0
2017-02-20T00:37:26.651Z,0
2017-02-20T00:38:37.005Z,0
2017-02-20T00:39:46.958Z,0
2017-02-20T00:40:57.718Z,0
2017-02-20T00:42:08.063Z,0
2017-02-20T00:43:18.280Z,0
2017-02-20T00:44:28.639Z,0
2017-02-20T00:45:39.364Z,0
2017-02-20T00:46:49.729Z,0
2017-02-20T00:48:00.498Z,0
2017-02-20T00:49:11.545Z,0
2017-02-20T00:50:21.903Z,0
2017-02-20T00:51:32.651Z,0
2017-02-20T00:52:43.054Z,0
2017-02-20T00:53:53.006Z,0
2017-02-20T00:55:03.254Z,0
2017-02-20T00:56:13.617Z,0
2017-02-20T00:57:24.383Z,0
2017-02-20T00:58:35.151Z,0
2017-02-20T00:59:45.508Z,0
2017-02-20T01:00:56.519Z,0
2017-02-20T01:02:06.468Z,0
2017-02-20T01:03:16.423Z,0
2017-02-20T01:04:26.775Z,0
2017-02-20T01:05:36.725Z,0
2017-02-20T01:06:47.377Z,0
2017-02-20T01:07:57.318Z,0
2017-02-20T01:09:06.862Z,0
2017-02-20T01:10:17.224Z,0
2017-02-20T01:11:27.173Z,0
2017-02-20T01:12:37.383Z,0
2017-02-20T01:13:46.945Z,0
2017-02-20T01:14:57.297Z,0
2017-02-20T01:16:08.040Z,0
2017-02-20T01:17:18.788Z,0
2017-02-20T01:18:29.050Z,0
2017-02-20T01:19:38.589Z,0
2017-02-20T01:20:48.941Z,0
2017-02-20T01:21:58.906Z,0
2017-02-20T01:23:09.659Z,0
2017-02-20T01:24:20.234Z,0
2017-02-20T01:25:30.567Z,0
2017-02-20T01:26:41.307Z,0
2017-02-20T01:27:51.675Z,0
2017-02-20T01:29:02.019Z,0
2017-02-20T01:30:12.999Z,0
2017-02-20T01:31:22.964Z,0
2017-02-20T01:32:32.532Z,0
2017-02-20T01:33:42.875Z,0
2017-02-20T01:34:53.621Z,0
2017-02-20T01:36:04.295Z,0
2017-02-20T01:37:14.250Z,0
2017-02-20T01:38:24.587Z,0
2017-02-20T01:39:34.529Z,0
2017-02-20T01:40:44.480Z,0
2017-02-20T01:41:55.533Z,0
2017-02-20T01:43:05.889Z,0
2017-02-20T01:44:15.838Z,0
2017-02-20T01:45:26.576Z,0
2017-02-20T01:46:36.538Z,0
2017-02-20T01:47:47.851Z,0
2017-02-20T01:48:58.609Z,0
2017-02-20T01:50:08.558Z,0
2017-02-20T01:51:18.504Z,0
2017-02-20T01:52:29.248Z,0
2017-02-20T01:53:39.137Z,0
2017-02-20T01:54:49.873Z,0
2017-02-20T01:56:00.622Z,0
2017-02-20T01:57:10.970Z,0
2017-02-20T01:58:20.922Z,0
2017-02-20T01:59:31.104Z,0
2017-02-20T02:00:41.069Z,0
2017-02-20T02:01:51.838Z,0
2017-02-20T02:03:02.583Z,0
2017-02-20T02:04:11.380Z,0
2017-02-20T02:05:21.592Z,0
2017-02-20T02:06:31.940Z,0
2017-02-20T02:07:42.660Z,0
2017-02-20T02:08:52.606Z,0
2017-02-20T02:10:02.161Z,0
2017-02-20T02:11:12.755Z,0
2017-02-20T02:12:22.316Z,0
2017-02-20T02:13:32.673Z,0
2017-02-20T02:14:42.657Z,0
2017-02-20T02:15:52.612Z,0
2017-02-20T02:17:03.230Z,0
2017-02-20T02:18:13.587Z,0
2017-02-20T02:19:23.924Z,0
2017-02-20T02:20:33.880Z,0
2017-02-20T02:21:44.237Z,0
2017-02-20T02:22:54.890Z,0
2017-02-20T02:24:05.255Z,0
2017-02-20T02:25:15.595Z,0
2017-02-20T02:26:25.955Z,0
2017-02-20T02:27:36.298Z,0
2017-02-20T02:28:46.154Z,0
2017-02-20T02:29:56.517Z,0
2017-02-20T02:31:06.862Z,0
2017-02-20T02:32:17.595Z,0
2017-02-20T02:33:28.324Z,0
2017-02-20T02:34:37.765Z,0
2017-02-20T02:35:48.519Z,0
2017-02-20T02:36:58.859Z,0
2017-02-20T02:38:09.198Z,0
2017-02-20T02:39:19.933Z,0
2017-02-20T02:40:30.570Z,0
2017-02-20T02:41:41.304Z,0
2017-02-20T02:42:51.659Z,0
2017-02-20T02:44:01.995Z,0
2017-02-20T02:45:12.739Z,0
2017-02-20T02:46:23.751Z,0
2017-02-20T02:47:34.097Z,0
2017-02-20T02:48:44.442Z,0
2017-02-20T02:49:54.780Z,0
2017-02-20T02:51:05.546Z,0
2017-02-20T02:52:16.180Z,0
2017-02-20T02:53:26.138Z,0
2017-02-20T02:54:36.925Z,0
2017-02-20T02:55:46.878Z,0
2017-02-20T02:56:57.249Z,0
2017-02-20T02:58:07.512Z,0
2017-02-20T02:59:17.489Z,0
2017-02-20T03:00:27.447Z,0
2017-02-20T03:01:37.803Z,0
2017-02-20T03:02:47.754Z,0
2017-02-20T03:03:57.982Z,0
2017-02-20T03:05:07.931Z,0
2017-02-20T03:06:18.283Z,0
2017-02-20T03:07:27.828Z,0
2017-02-20T03:08:38.587Z,0
2017-02-20T03:09:49.237Z,0
2017-02-20T03:10:59.987Z,0
2017-02-20T03:12:10.330Z,0
2017-02-20T03:13:20.276Z,0
2017-02-20T03:14:30.609Z,0
2017-02-20T03:15:40.442Z,0
2017-02-20T03:16:50.781Z,0
2017-02-20T03:18:00.747Z,0
2017-02-20T03:19:10.715Z,0
2017-02-20T03:20:20.295Z,0
2017-02-20T03:21:30.871Z,0
2017-02-20T03:22:40.833Z,0
2017-02-20T03:23:51.572Z,0
2017-02-20T03:25:01.521Z,0
2017-02-20T03:26:11.876Z,0
2017-02-20T03:27:22.081Z,0
2017-02-20T03:28:31.623Z,0
2017-02-20T03:29:42.375Z,0
2017-02-20T03:30:52.340Z,0
2017-02-20T03:32:03.108Z,0
2017-02-20T03:33:14.174Z,0
2017-02-20T03:34:24.112Z,0
2017-02-20T03:35:34.084Z,0
2017-02-20T03:36:44.017Z,0
2017-02-20T03:37:54.353Z,0
2017-02-20T03:39:04.970Z,0
2017-02-20T03:40:15.348Z,0
2017-02-20T03:41:24.910Z,0
2017-02-20T03:42:35.649Z,0
2017-02-20T03:43:45.223Z,0
2017-02-20T03:44:55.856Z,0
2017-02-20T03:46:06.599Z,0
2017-02-20T03:47:16.951Z,0
2017-02-20T03:48:26.916Z,0
2017-02-20T03:49:36.890Z,0
2017-02-20T03:50:47.883Z,0
2017-02-20T03:51:58.640Z,0
2017-02-20T03:53:08.593Z,0
2017-02-20T03:54:19.325Z,0
2017-02-20T03:55:29.291Z,0
2017-02-20T03:56:39.502Z,0
2017-02-20T03:57:49.065Z,0
2017-02-20T03:58:59.424Z,0
2017-02-20T04:00:09.376Z,0
2017-02-20T04:01:20.122Z,0
2017-02-20T04:02:30.696Z,0
2017-02-20T04:03:41.070Z,0
2017-02-20T04:04:51.427Z,0
2017-02-20T04:06:01.387Z,0
2017-02-20T04:07:12.129Z,0
2017-02-20T04:08:22.326Z,0
2017-02-20T04:09:33.067Z,0
2017-02-20T04:10:43.853Z,0
2017-02-20T04:11:53.783Z,0
2017-02-20T04:13:04.152Z,0
2017-02-20T04:14:14.744Z,0
2017-02-20T04:15:24.289Z,0
2017-02-20T04:16:34.641Z,0
2017-02-20T04:17:44.982Z,0
2017-02-20T04:18:54.920Z,0
2017-02-20T04:20:05.912Z,0
2017-02-20T04:21:15.863Z,0
2017-02-20T04:22:26.244Z,0
2017-02-20T04:23:35.780Z,0
2017-02-20T04:24:45.726Z,0
2017-02-20T04:25:55.937Z,0
2017-02-20T04:27:06.292Z,0
2017-02-20T04:28:16.625Z,0
2017-02-20T04:29:26.593Z,0
2017-02-20T04:30:37.323Z,0
2017-02-20T04:31:48.318Z,0
2017-02-20T04:32:58.677Z,0
2017-02-20T04:34:09.064Z,0
2017-02-20T04:35:18.643Z,0
2017-02-20T04:36:28.891Z,0
2017-02-20T04:37:39.870Z,0
2017-02-20T04:38:49.817Z,0
2017-02-20T04:39:59.767Z,0
2017-02-20T04:41:10.104Z,0
2017-02-20T04:42:19.656Z,0
2017-02-20T04:43:29.864Z,0
2017-02-20T04:44:40.267Z,0
2017-02-20T04:45:50.203Z,0
2017-02-20T04:47:00.167Z,0
2017-02-20T04:48:10.512Z,0
2017-02-20T04:49:21.515Z,0
2017-02-20T04:50:31.872Z,0
2017-02-20T04:51:41.819Z,0
2017-02-20T04:52:52.168Z,0
2017-02-20T04:54:02.145Z,0
2017-02-20T04:55:12.750Z,0
2017-02-20T04:56:23.096Z,0
2017-02-20T04:57:33.442Z,0
2017-02-20T04:58:43.007Z,0
2017-02-20T04:59:53.794Z,0
2017-02-20T05:01:04.050Z,0
2017-02-20T05:02:13.998Z,0
2017-02-20T05:03:23.941Z,0
2017-02-20T05:04:33.909Z,0
2017-02-20T05:05:44.271Z,0
2017-02-20T05:06:55.253Z,0
2017-02-20T05:08:05.215Z,0
2017-02-20T05:09:15.954Z,0
2017-02-20T05:10:26.312Z,0
2017-02-20T05:11:35.883Z,0
2017-02-20T05:12:46.478Z,0
2017-02-20T05:13:56.447Z,0
2017-02-20T05:15:06.812Z,0
2017-02-20T05:16:17.557Z,0
2017-02-20T05:17:27.903Z,0
2017-02-20T05:18:38.098Z,0
2017-02-20T05:19:48.060Z,0
2017-02-20T05:20:58.422Z,0
2017-02-20T05:22:08.767Z,0
2017-02-20T05:23:18.713Z,0
2017-02-20T05:24:29.359Z,0
2017-02-20T05:25:39.707Z,0
2017-02-20T05:26:49.676Z,0
2017-02-20T05:27:59.646Z,0
2017-02-20T05:29:09.989Z,0
2017-02-20T05:30:20.178Z,0
2017-02-20T05:31:30.126Z,0
2017-02-20T05:32:40.886Z,0
2017-02-20T05:33:50.444Z,0
2017-02-20T05:35:00.780Z,0
2017-02-20T05:36:11.781Z,0
2017-02-20T05:37:22.520Z,0
2017-02-20T05:38:33.253Z,0
2017-02-20T05:39:43.616Z,0
2017-02-20T05:40:53.948Z,0
2017-02-20T05:42:05.015Z,0
2017-02-20T05:43:15.776Z,0
2017-02-20T05:44:25.736Z,0
2017-02-20T05:45:36.478Z,0
2017-02-20T05:46:47.203Z,0
2017-02-20T05:47:57.890Z,0
2017-02-20T05:49:07.449Z,0
2017-02-20T05:50:18.191Z,0
2017-02-20T05:51:28.144Z,0
2017-02-20T05:52:38.907Z,0
2017-02-20T05:53:50.041Z,0
2017-02-20T05:55:00.391Z,0
2017-02-20T05:56:10.568Z,0
2017-02-20T05:57:20.512Z,0
2017-02-20T05:58:30.870Z,0
2017-02-20T05:59:41.528Z,0
2017-02-20T06:00:52.265Z,0
2017-02-20T06:02:02.618Z,0
2017-02-20T06:03:11.760Z,0
2017-02-20T06:04:22.108Z,0
2017-02-20T06:05:33.164Z,0
2017-02-20T06:06:43.515Z,0
2017-02-20T06:07:53.868Z,0
2017-02-20T06:09:04.595Z,0
2017-02-20T06:10:14.941Z,0
2017-02-20T06:11:25.158Z,0
2017-02-20T06:12:35.898Z,0
2017-02-20T06:13:46.249Z,0
2017-02-20T06:14:56.214Z,0
2017-02-20T06:16:06.582Z,0
2017-02-20T06:17:16.408Z,0
2017-02-20T06:18:26.754Z,0
2017-02-20T06:19:37.115Z,0
2017-02-20T06:20:47.459Z,0
2017-02-20T06:21:57.848Z,5
2017-02-20T06:23:08.885Z,5
2017-02-20T06:24:18.844Z,5
2017-02-20T06:25:29.210Z,0
2017-02-20T06:26:39.234Z,0
2017-02-20T06:27:49.199Z,0
2017-02-20T06:29:00.191Z,0
2017-02-20T06:30:10.556Z,5
2017-02-20T06:31:20.891Z,5
2017-02-20T06:32:31.253Z,5
2017-02-20T06:33:41.989Z,5
2017-02-20T06:34:52.181Z,5
2017-02-20T06:36:02.528Z,5
2017-02-20T06:37:13.284Z,5
2017-02-20T06:38:23.639Z,5
2017-02-20T06:39:34.381Z,10
2017-02-20T06:40:44.655Z,10
2017-02-20T06:41:55.396Z,10
2017-02-20T06:43:06.162Z,10
2017-02-20T06:44:16.102Z,10
2017-02-20T06:45:25.676Z,10
2017-02-20T06:46:36.709Z,10
2017-02-20T06:47:47.461Z,10
2017-02-20T06:48:58.207Z,10
2017-02-20T06:50:08.981Z,15
2017-02-20T06:51:18.952Z,15
2017-02-20T06:52:29.368Z,15
2017-02-20T06:53:39.717Z,15
2017-02-20T06:54:50.095Z,15
2017-02-20T06:56:00.440Z,15
2017-02-20T06:57:10.783Z,15
2017-02-20T06:58:20.595Z,15
2017-02-20T06:59:30.962Z,15
2017-02-20T07:00:40.934Z,15
2017-02-20T07:01:51.272Z,15
2017-02-20T07:03:01.221Z,15
2017-02-20T07:04:11.111Z,10
2017-02-20T07:05:21.113Z,10
2017-02-20T07:06:31.493Z,10
2017-02-20T07:07:42.501Z,15
2017-02-20T07:08:53.272Z,10
2017-02-20T07:10:03.995Z,10
2017-02-20T07:11:14.344Z,10
2017-02-20T07:12:25.102Z,10
2017-02-20T07:13:35.517Z,10
2017-02-20T07:14:45.883Z,10
2017-02-20T07:15:56.963Z,10
2017-02-20T07:17:06.914Z,20
2017-02-20T07:18:16.901Z,20
2017-02-20T07:19:27.722Z,25
2017-02-20T07:20:38.465Z,20
2017-02-20T07:21:49.498Z,25
2017-02-20T07:23:00.257Z,30
2017-02-20T07:24:10.596Z,30
2017-02-20T07:25:20.975Z,30
2017-02-20T07:26:31.375Z,30
2017-02-20T07:27:42.425Z,35
2017-02-20T07:28:53.166Z,40
2017-02-20T07:30:03.538Z,40
2017-02-20T07:31:14.299Z,40
2017-02-20T07:32:24.695Z,35
2017-02-20T07:33:34.945Z,30
2017-02-20T07:34:44.510Z,35
2017-02-20T07:35:54.472Z,35
2017-02-20T07:37:04.423Z,35
2017-02-20T07:38:13.980Z,30
2017-02-20T07:39:24.590Z,30
2017-02-20T07:40:34.980Z,35
2017-02-20T07:41:45.377Z,40
2017-02-20T07:42:55.735Z,40
2017-02-20T07:44:06.110Z,40
2017-02-20T07:45:16.331Z,40
2017-02-20T07:46:26.703Z,40
2017-02-20T07:47:36.666Z,40
2017-02-20T07:48:46.637Z,40
2017-02-20T07:49:56.984Z,40
2017-02-20T07:51:07.629Z,35
2017-02-20T07:52:18.021Z,30
2017-02-20T07:53:27.972Z,35
2017-02-20T07:54:38.321Z,35
2017-02-20T07:55:48.293Z,45
2017-02-20T07:56:58.933Z,40
2017-02-20T07:58:09.291Z,40
2017-02-20T07:59:19.645Z,35
2017-02-20T08:00:29.604Z,35
2017-02-20T08:01:39.991Z,30
2017-02-20T08:02:50.619Z,35
2017-02-20T08:04:01.384Z,40
2017-02-20T08:05:11.758Z,30
2017-02-20T08:06:22.129Z,25
2017-02-20T08:07:32.485Z,20
2017-02-20T08:08:43.095Z,20
2017-02-20T08:09:53.083Z,20
2017-02-20T08:11:03.454Z,25
2017-02-20T08:12:13.819Z,30
2017-02-20T08:13:24.557Z,35
2017-02-20T08:14:35.548Z,45
2017-02-20T08:15:46.301Z,45
2017-02-20T08:16:56.666Z,50
2017-02-20T08:18:07.020Z,55
2017-02-20T08:19:17.387Z,60
2017-02-20T08:20:27.207Z,55
2017-02-20T08:21:37.943Z,55
2017-02-20T08:22:47.940Z,55
2017-02-20T08:23:58.698Z,55
2017-02-20T08:25:08.683Z,60
2017-02-20T08:26:18.899Z,50
2017-02-20T08:27:29.249Z,60
2017-02-20T08:28:40.263Z,60
2017-02-20T08:29:50.650Z,60
2017-02-20T08:31:01.402Z,60
2017-02-20T08:32:12.410Z,65
2017-02-20T08:33:23.188Z,65
2017-02-20T08:34:33.562Z,65
2017-02-20T08:35:44.310Z,70
2017-02-20T08:36:54.647Z,65
2017-02-20T08:38:05.642Z,70
2017-02-20T08:39:16.406Z,80
2017-02-20T08:40:25.978Z,80
2017-02-20T08:41:36.342Z,75
2017-02-20T08:42:46.720Z,75
2017-02-20T08:43:57.334Z,80
2017-02-20T08:45:06.893Z,90
2017-02-20T08:46:17.687Z,85
2017-02-20T08:47:28.081Z,85
2017-02-20T08:48:38.464Z,85
2017-02-20T08:49:49.072Z,80
2017-02-20T08:50:59.451Z,85
2017-02-20T08:52:10.250Z,75
2017-02-20T08:53:20.608Z,75
2017-02-20T08:54:31.629Z,75
2017-02-20T08:55:42.262Z,80
2017-02-20T08:56:52.631Z,80
2017-02-20T08:58:02.615Z,80
2017-02-20T08:59:12.974Z,75
2017-02-20T09:00:23.348Z,70
2017-02-20T09:01:34.011Z,70
2017-02-20T09:02:43.981Z,65
2017-02-20T09:03:54.342Z,65
2017-02-20T09:05:04.712Z,60
2017-02-20T09:06:15.529Z,65
2017-02-20T09:07:26.204Z,80
2017-02-20T09:08:36.610Z,75
2017-02-20T09:09:46.966Z,70
2017-02-20T09:10:57.357Z,65
2017-02-20T09:12:08.128Z,70
2017-02-20T09:13:19.145Z,75
2017-02-20T09:14:29.550Z,80
2017-02-20T09:15:39.914Z,90
2017-02-20T09:16:50.280Z,100
2017-02-20T09:18:00.670Z,100
2017-02-20T09:19:11.335Z,100
2017-02-20T09:20:21.817Z,105
2017-02-20T09:21:32.609Z,105
2017-02-20T09:22:43.449Z,110
2017-02-20T09:23:53.015Z,110
2017-02-20T09:25:03.269Z,110
2017-02-20T09:26:14.033Z,110
2017-02-20T09:27:24.391Z,110
2017-02-20T09:28:35.163Z,110
2017-02-20T09:29:44.718Z,115
2017-02-20T09:30:55.363Z,115
2017-02-20T09:32:05.706Z,120
2017-02-20T09:33:16.074Z,120
2017-02-20T09:34:26.052Z,105
2017-02-20T09:35:36.809Z,105
2017-02-20T09:36:47.857Z,100
2017-02-20T09:37:57.877Z,100
2017-02-20T09:39:07.496Z,95
2017-02-20T09:40:16.722Z,95
2017-02-20T09:41:26.692Z,95
2017-02-20T09:42:37.284Z,95
2017-02-20T09:43:48.103Z,85
2017-02-20T09:44:58.863Z,85
2017-02-20T09:46:09.632Z,85
2017-02-20T09:47:19.844Z,95
2017-02-20T09:48:30.772Z,95
2017-02-20T09:49:41.188Z,90
2017-02-20T09:50:51.946Z,95
2017-02-20T09:52:02.344Z,90
2017-02-20T09:53:12.726Z,90
2017-02-20T09:54:23.744Z,90
2017-02-20T09:55:34.132Z,90
2017-02-20T09:56:44.887Z,95
2017-02-20T09:57:55.255Z,95
2017-02-20T09:59:05.619Z,95
2017-02-20T10:00:16.303Z,95
2017-02-20T10:01:27.062Z,90
2017-02-20T10:02:37.432Z,90
2017-02-20T10:03:48.173Z,90
2017-02-20T10:04:58.557Z,85
2017-02-20T10:06:07.981Z,85
2017-02-20T10:07:18.755Z,90
2017-02-20T10:08:29.517Z,90
2017-02-20T10:09:40.282Z,90
2017-02-20T10:10:50.631Z,90
2017-02-20T10:12:01.690Z,85
2017-02-20T10:13:12.054Z,85
2017-02-20T10:14:22.832Z,85
2017-02-20T10:15:33.187Z,85
2017-02-20T10:16:43.567Z,85
2017-02-20T10:17:54.211Z,90
2017-02-20T10:19:04.963Z,100
2017-02-20T10:20:14.909Z,100
2017-02-20T10:21:25.652Z,100
2017-02-20T10:22:35.614Z,90
2017-02-20T10:23:45.937Z,85
2017-02-20T10:24:56.301Z,85
2017-02-20T10:26:06.691Z,75
2017-02-20T10:27:16.642Z,75
2017-02-20T10:28:27.412Z,70
2017-02-20T10:29:38.415Z,75
2017-02-20T10:30:48.748Z,75
2017-02-20T10:31:58.703Z,75
2017-02-20T10:33:08.672Z,80
2017-02-20T10:34:19.028Z,95
2017-02-20T10:35:29.344Z,105
2017-02-20T10:36:39.725Z,110
2017-02-20T10:37:50.111Z,115
2017-02-20T10:39:00.920Z,125
2017-02-20T10:40:10.902Z,125
2017-02-20T10:41:21.529Z,115
2017-02-20T10:42:32.307Z,120
2017-02-20T10:43:42.281Z,115
2017-02-20T10:44:51.874Z,115
2017-02-20T10:46:02.623Z,120
2017-02-20T10:47:13.290Z,120
2017-02-20T10:48:23.741Z,110
2017-02-20T10:49:34.115Z,105
2017-02-20T10:50:44.883Z,100
2017-02-20T10:51:55.686Z,110
2017-02-20T10:53:06.374Z,100
2017-02-20T10:54:17.152Z,100
2017-02-20T10:55:27.574Z,100
2017-02-20T10:56:37.833Z,100
2017-02-20T10:57:48.224Z,100
2017-02-20T10:58:58.678Z,105
2017-02-20T11:00:09.126Z,115
2017-02-20T11:01:19.089Z,120
2017-02-20T11:02:29.890Z,130
2017-02-20T11:03:40.553Z,135
2017-02-20T11:04:51.324Z,125
2017-02-20T11:06:01.374Z,125
2017-02-20T11:07:10.934Z,130
2017-02-20T11:08:20.098Z,130
2017-02-20T11:09:30.374Z,135
2017-02-20T11:10:41.136Z,135
2017-02-20T11:11:52.053Z,130
2017-02-20T11:13:02.854Z,135
2017-02-20T11:14:13.601Z,140
2017-02-20T11:15:24.652Z,135
2017-02-20T11:16:35.417Z,130
2017-02-20T11:17:45.388Z,125
2017-02-20T11:18:55.796Z,130
2017-02-20T11:20:06.581Z,130
2017-02-20T11:21:16.569Z,110
2017-02-20T11:22:26.518Z,115
2017-02-20T11:23:36.105Z,85
2017-02-20T11:24:46.881Z,85
2017-02-20T11:25:57.888Z,85
2017-02-20T11:27:08.236Z,80
2017-02-20T11:28:18.224Z,100
2017-02-20T11:29:28.209Z,105
2017-02-20T11:30:38.157Z,110
2017-02-20T11:31:49.240Z,105
2017-02-20T11:32:59.851Z,115
2017-02-20T11:34:10.601Z,115
2017-02-20T11:35:21.369Z,105
2017-02-20T11:36:31.740Z,110
2017-02-20T11:37:42.364Z,105
2017-02-20T11:38:53.128Z,110
2017-02-20T11:40:03.910Z,110
2017-02-20T11:41:14.304Z,105
2017-02-20T11:42:25.071Z,110
2017-02-20T11:43:36.076Z,110
2017-02-20T11:44:46.442Z,105
2017-02-20T11:45:57.212Z,85
2017-02-20T11:47:07.977Z,90
2017-02-20T11:48:18.904Z,90
2017-02-20T11:49:29.964Z,100
2017-02-20T11:50:39.924Z,85
2017-02-20T11:51:50.288Z,80
2017-02-20T11:53:00.660Z,80
2017-02-20T11:54:10.623Z,85
2017-02-20T11:55:21.229Z,90
2017-02-20T11:56:31.185Z,85
2017-02-20T11:57:41.951Z,85
2017-02-20T11:58:51.910Z,80
2017-02-20T12:00:01.895Z,80
2017-02-20T12:01:12.898Z,80
2017-02-20T12:02:22.848Z,80
2017-02-20T12:03:33.216Z,85
2017-02-20T12:04:43.565Z,85
2017-02-20T12:05:53.122Z,80
2017-02-20T12:07:04.148Z,80
2017-02-20T12:08:14.119Z,90
2017-02-20T12:09:24.108Z,90
2017-02-20T12:10:34.477Z,85
2017-02-20T12:11:45.228Z,85
2017-02-20T12:12:55.863Z,85
2017-02-20T12:14:06.237Z,85
2017-02-20T12:15:16.206Z,85
2017-02-20T12:16:26.596Z,80
2017-02-20T12:17:36.976Z,85
2017-02-20T12:18:47.597Z,85
2017-02-20T12:19:57.965Z,80
2017-02-20T12:21:07.993Z,70
2017-02-20T12:22:18.755Z,70
2017-02-20T12:23:29.531Z,85
2017-02-20T12:24:40.288Z,95
2017-02-20T12:25:49.904Z,105
2017-02-20T12:26:59.901Z,100
2017-02-20T12:28:10.739Z,100
2017-02-20T12:29:21.431Z,90
2017-02-20T12:30:31.830Z,90
2017-02-20T12:31:41.828Z,80
2017-02-20T12:32:52.576Z,75
2017-02-20T12:34:03.388Z,80
2017-02-20T12:35:13.662Z,80
2017-02-20T12:36:24.458Z,90
2017-02-20T12:37:35.238Z,90
2017-02-20T12:38:45.624Z,85
2017-02-20T12:39:56.390Z,95
2017-02-20T12:41:06.665Z,110
2017-02-20T12:42:17.440Z,110
2017-02-20T12:43:28.236Z,105
2017-02-20T12:44:38.795Z,95
2017-02-20T12:45:48.768Z,95
2017-02-20T12:46:59.376Z,100
2017-02-20T12:48:09.347Z,105
2017-02-20T12:49:20.115Z,115
2017-02-20T12:50:30.533Z,115
2017-02-20T12:51:41.302Z,115
2017-02-20T12:52:52.073Z,125
2017-02-20T12:54:02.052Z,120
2017-02-20T12:55:12.408Z,110
2017-02-20T12:56:22.395Z,100
2017-02-20T12:57:32.265Z,105
2017-02-20T12:58:42.640Z,95
2017-02-20T12:59:53.411Z,95
2017-02-20T13:01:03.187Z,15
2017-02-20T13:02:13.535Z,80
2017-02-20T13:03:24.628Z,80
2017-02-20T13:04:35.002Z,75
2017-02-20T13:05:45.429Z,70
2017-02-20T13:06:55.444Z,60
2017-02-20T13:08:06.212Z,65
2017-02-20T13:09:16.504Z,65
2017-02-20T13:10:27.554Z,60
2017-02-20T13:11:37.920Z,55
2017-02-20T13:12:48.288Z,55
2017-02-20T13:13:58.657Z,55
2017-02-20T13:15:09.300Z,55
2017-02-20T13:16:20.115Z,55
2017-02-20T13:17:30.908Z,55
2017-02-20T13:18:41.279Z,65
2017-02-20T13:19:51.238Z,55
2017-02-20T13:21:01.856Z,60
2017-02-20T13:22:12.620Z,70
2017-02-20T13:23:23.597Z,75
2017-02-20T13:24:33.971Z,75
2017-02-20T13:25:44.348Z,75
2017-02-20T13:26:55.028Z,70
2017-02-20T13:28:05.386Z,70
2017-02-20T13:29:16.160Z,70
2017-02-20T13:30:26.937Z,80
2017-02-20T13:31:37.702Z,75
2017-02-20T13:32:48.726Z,70
2017-02-20T13:33:59.478Z,65
2017-02-20T13:35:09.866Z,65
2017-02-20T13:36:20.678Z,65
2017-02-20T13:37:31.037Z,50
2017-02-20T13:38:42.067Z,55
2017-02-20T13:39:52.858Z,50
2017-02-20T13:41:03.225Z,50
2017-02-20T13:42:13.626Z,50
2017-02-20T13:43:24.409Z,45
2017-02-20T13:44:35.534Z,55
2017-02-20T13:45:45.934Z,55
2017-02-20T13:46:55.540Z,60
2017-02-20T13:48:05.894Z,55
2017-02-20T13:49:15.879Z,55
2017-02-20T13:50:26.106Z,60
2017-02-20T13:51:36.496Z,60
2017-02-20T13:52:46.839Z,50
2017-02-20T13:53:57.200Z,55
2017-02-20T13:55:07.550Z,55
2017-02-20T13:56:18.575Z,50
2017-02-20T13:57:28.925Z,55
2017-02-20T13:58:39.315Z,50
2017-02-20T13:59:49.286Z,50
2017-02-20T14:00:59.670Z,55
2017-02-20T14:02:10.327Z,50
2017-02-20T14:03:20.687Z,55
2017-02-20T14:04:30.664Z,50
2017-02-20T14:05:41.056Z,50
2017-02-20T14:06:51.451Z,45
2017-02-20T14:08:02.532Z,40
2017-02-20T14:09:12.501Z,35
2017-02-20T14:10:22.946Z,30
2017-02-20T14:11:33.738Z,30
2017-02-20T14:12:44.506Z,25
2017-02-20T14:13:55.129Z,25
2017-02-20T14:15:05.180Z,25
2017-02-20T14:16:15.168Z,25
2017-02-20T14:17:25.558Z,25
2017-02-20T14:18:35.935Z,30
2017-02-20T14:19:47.007Z,30
2017-02-20T14:20:57.014Z,25
2017-02-20T14:22:07.388Z,25
2017-02-20T14:23:17.786Z,20
2017-02-20T14:24:28.157Z,20
2017-02-20T14:25:38.404Z,20
2017-02-20T14:26:49.157Z,25
2017-02-20T14:27:59.104Z,20
2017-02-20T14:29:09.898Z,15
2017-02-20T14:30:20.275Z,10
2017-02-20T14:31:30.190Z,10
2017-02-20T14:32:40.961Z,15
2017-02-20T14:33:51.729Z,15
2017-02-20T14:35:02.543Z,15
2017-02-20T14:36:12.912Z,15
2017-02-20T14:37:23.932Z,10
2017-02-20T14:38:34.332Z,10
2017-02-20T14:39:44.700Z,10
2017-02-20T14:40:54.685Z,20
2017-02-20T14:42:05.487Z,20
2017-02-20T14:43:16.567Z,15
2017-02-20T14:44:26.937Z,15
2017-02-20T14:45:37.324Z,10
2017-02-20T14:46:47.709Z,10
2017-02-20T14:47:58.071Z,10
2017-02-20T14:49:08.728Z,10
2017-02-20T14:50:18.711Z,15
2017-02-20T14:51:29.484Z,15
2017-02-20T14:52:39.861Z,20
2017-02-20T14:53:49.833Z,15
2017-02-20T14:55:00.495Z,15
2017-02-20T14:56:11.258Z,15
2017-02-20T14:57:21.606Z,15
2017-02-20T14:58:32.371Z,15
2017-02-20T14:59:42.729Z,15
2017-02-20T15:00:53.746Z,15
2017-02-20T15:02:04.524Z,15
2017-02-20T15:03:14.906Z,10
2017-02-20T15:04:24.895Z,10
2017-02-20T15:05:35.690Z,15
2017-02-20T15:06:45.954Z,10
2017-02-20T15:07:56.731Z,10
2017-02-20T15:09:07.367Z,15
2017-02-20T15:10:17.755Z,10
2017-02-20T15:11:28.527Z,10
2017-02-20T15:12:39.174Z,10
2017-02-20T15:13:49.158Z,10
2017-02-20T15:14:59.929Z,10
2017-02-20T15:16:10.674Z,10
2017-02-20T15:17:21.178Z,10
2017-02-20T15:18:31.774Z,5
2017-02-20T15:19:42.537Z,5
2017-02-20T15:20:51.703Z,5
2017-02-20T15:22:01.674Z,5
2017-02-20T15:23:12.680Z,5
2017-02-20T15:24:23.710Z,5
2017-02-20T15:25:34.752Z,5
2017-02-20T15:26:45.516Z,5
2017-02-20T15:27:56.332Z,5
2017-02-20T15:29:06.307Z,5
2017-02-20T15:30:16.236Z,5
2017-02-20T15:31:27.010Z,5
2017-02-20T15:32:37.777Z,5
2017-02-20T15:33:47.722Z,5
2017-02-20T15:34:58.070Z,5
2017-02-20T15:36:09.129Z,5
2017-02-20T15:37:19.485Z,5
2017-02-20T15:38:29.872Z,5
2017-02-20T15:39:40.242Z,5
2017-02-20T15:40:50.601Z,0
2017-02-20T15:42:01.214Z,5
2017-02-20T15:43:11.562Z,5
2017-02-20T15:44:21.916Z,5
2017-02-20T15:45:32.282Z,0
2017-02-20T15:46:42.701Z,0
2017-02-20T15:47:53.706Z,0
2017-02-20T15:49:04.480Z,0
2017-02-20T15:50:15.233Z,0
2017-02-20T15:51:25.991Z,0
2017-02-20T15:52:35.948Z,0
2017-02-20T15:53:46.611Z,0
2017-02-20T15:54:57.370Z,0
2017-02-20T15:56:08.165Z,0
2017-02-20T15:57:18.547Z,0
2017-02-20T15:58:29.348Z,0
2017-02-20T15:59:40.416Z,0
2017-02-20T16:00:50.787Z,0
2017-02-20T16:02:00.022Z,0
2017-02-20T16:03:09.987Z,0
2017-02-20T16:04:19.961Z,0
2017-02-20T16:05:30.182Z,0
2017-02-20T16:06:40.531Z,0
2017-02-20T16:07:50.110Z,0
2017-02-20T16:09:00.087Z,0
2017-02-20T16:10:10.515Z,0
2017-02-20T16:11:21.516Z,0
2017-02-20T16:12:32.259Z,0
2017-02-20T16:13:42.630Z,0
2017-02-20T16:14:52.592Z,0
2017-02-20T16:16:03.011Z,0
2017-02-20T16:17:14.080Z,0
2017-02-20T16:18:24.425Z,0
2017-02-20T16:19:34.790Z,0
2017-02-20T16:20:45.181Z,0
2017-02-20T16:21:55.553Z,0
2017-02-20T16:23:06.182Z,0
2017-02-20T16:24:16.557Z,0
2017-02-20T16:25:26.532Z,0
2017-02-20T16:26:36.929Z,0
2017-02-20T16:27:47.333Z,0
2017-02-20T16:28:58.412Z,0
2017-02-20T16:30:08.793Z,0
2017-02-20T16:31:19.592Z,0
2017-02-20T16:32:29.958Z,0
2017-02-20T16:33:40.312Z,0
2017-02-20T16:34:51.321Z,0
2017-02-20T16:36:01.687Z,0
2017-02-20T16:37:12.440Z,0
2017-02-20T16:38:23.200Z,0
2017-02-20T16:39:33.549Z,0
2017-02-20T16:40:44.617Z,0
2017-02-20T16:41:55.002Z,0
2017-02-20T16:43:04.976Z,0
2017-02-20T16:44:15.760Z,0
2017-02-20T16:45:26.547Z,0
2017-02-20T16:46:37.155Z,0
2017-02-20T16:47:47.536Z,0
2017-02-20T16:48:57.542Z,0
2017-02-20T16:50:07.930Z,0
2017-02-20T16:51:17.895Z,0
2017-02-20T16:52:27.680Z,0
2017-02-20T16:53:38.028Z,0
2017-02-20T16:54:48.028Z,0
2017-02-20T16:55:58.361Z,0
2017-02-20T16:57:08.323Z,0
2017-02-20T16:58:18.994Z,0